sensor_id;sensor_type;location;lat;lon;timestamp;pressure;altitude;pressure_sealevel;temperature;humidity
64053;BME280;50299;49.524;8.536;2023-04-25T00:00:48;99912.06;;;7.72;68.58
64053;BME280;50299;49.524;8.536;2023-04-25T00:03:18;99909.31;;;7.98;70.03
64053;BME280;50299;49.524;8.536;2023-04-25T00:05:45;99913.00;;;8.20;74.88
64053;BME280;50299;49.524;8.536;2023-04-25T00:08:12;99917.50;;;8.42;70.21
64053;BME280;50299;49.524;8.536;2023-04-25T00:10:38;99904.81;;;8.58;70.51
64053;BME280;50299;49.524;8.536;2023-04-25T00:13:05;99897.31;;;8.76;72.15
64053;BME280;50299;49.524;8.536;2023-04-25T00:15:35;99904.41;;;8.94;71.84
64053;BME280;50299;49.524;8.536;2023-04-25T00:18:02;99914.06;;;9.09;71.68
64053;BME280;50299;49.524;8.536;2023-04-25T00:20:29;99908.16;;;9.19;70.53
64053;BME280;50299;49.524;8.536;2023-04-25T00:22:56;99908.66;;;9.21;70.18
64053;BME280;50299;49.524;8.536;2023-04-25T00:25:22;99911.16;;;9.05;63.76
64053;BME280;50299;49.524;8.536;2023-04-25T00:27:49;99916.47;;;8.81;65.74
64053;BME280;50299;49.524;8.536;2023-04-25T00:30:15;99912.38;;;8.87;69.87
64053;BME280;50299;49.524;8.536;2023-04-25T00:32:42;99916.56;;;8.93;67.85
64053;BME280;50299;49.524;8.536;2023-04-25T00:35:09;99917.13;;;9.07;72.25
64053;BME280;50299;49.524;8.536;2023-04-25T00:37:35;99910.91;;;9.19;70.20
64053;BME280;50299;49.524;8.536;2023-04-25T00:40:04;99918.84;;;9.21;66.95
64053;BME280;50299;49.524;8.536;2023-04-25T00:42:32;99902.41;;;9.33;70.71
64053;BME280;50299;49.524;8.536;2023-04-25T00:44:59;99907.53;;;9.43;69.12
64053;BME280;50299;49.524;8.536;2023-04-25T00:47:25;99907.81;;;9.50;67.54
64053;BME280;50299;49.524;8.536;2023-04-25T00:49:52;99895.91;;;9.58;69.73
64053;BME280;50299;49.524;8.536;2023-04-25T00:52:19;99886.63;;;9.63;68.19
64053;BME280;50299;49.524;8.536;2023-04-25T00:54:46;99896.16;;;9.66;67.47
64053;BME280;50299;49.524;8.536;2023-04-25T00:57:12;99896.72;;;9.59;65.77
64053;BME280;50299;49.524;8.536;2023-04-25T00:59:43;99892.59;;;9.65;65.68
64053;BME280;50299;49.524;8.536;2023-04-25T01:02:11;99889.84;;;9.65;65.35
64053;BME280;50299;49.524;8.536;2023-04-25T01:04:37;99884.88;;;9.58;64.42
64053;BME280;50299;49.524;8.536;2023-04-25T01:07:04;99884.03;;;9.37;65.35
64053;BME280;50299;49.524;8.536;2023-04-25T01:09:31;99885.38;;;9.31;68.92
64053;BME280;50299;49.524;8.536;2023-04-25T01:12:00;99885.38;;;9.31;69.27
64053;BME280;50299;49.524;8.536;2023-04-25T01:14:27;99878.56;;;9.28;72.62
64053;BME280;50299;49.524;8.536;2023-04-25T01:16:54;99884.84;;;9.37;71.40
64053;BME280;50299;49.524;8.536;2023-04-25T01:19:21;99881.59;;;9.15;67.22
64053;BME280;50299;49.524;8.536;2023-04-25T01:21:47;99880.75;;;8.93;74.38
64053;BME280;50299;49.524;8.536;2023-04-25T01:24:14;99874.16;;;8.77;74.05
64053;BME280;50299;49.524;8.536;2023-04-25T01:26:41;99870.75;;;8.71;80.13
64053;BME280;50299;49.524;8.536;2023-04-25T01:29:11;99871.91;;;8.70;81.30
64053;BME280;50299;49.524;8.536;2023-04-25T01:31:38;99874.56;;;8.49;74.10
64053;BME280;50299;49.524;8.536;2023-04-25T01:34:04;99869.81;;;7.94;73.30
64053;BME280;50299;49.524;8.536;2023-04-25T01:36:31;99875.97;;;7.82;80.53
64053;BME280;50299;49.524;8.536;2023-04-25T01:39:01;99876.78;;;7.83;84.45
64053;BME280;50299;49.524;8.536;2023-04-25T01:41:27;99883.56;;;8.11;82.66
64053;BME280;50299;49.524;8.536;2023-04-25T01:43:57;99880.59;;;8.25;82.06
64053;BME280;50299;49.524;8.536;2023-04-25T01:46:24;99884.84;;;8.23;80.27
64053;BME280;50299;49.524;8.536;2023-04-25T01:48:50;99880.94;;;8.24;79.87
64053;BME280;50299;49.524;8.536;2023-04-25T01:51:17;99878.06;;;7.94;76.73
64053;BME280;50299;49.524;8.536;2023-04-25T01:53:43;99883.72;;;7.89;89.02
64053;BME280;50299;49.524;8.536;2023-04-25T01:56:12;99886.50;;;7.98;92.90
64053;BME280;50299;49.524;8.536;2023-04-25T01:58:39;99893.44;;;8.04;89.60
64053;BME280;50299;49.524;8.536;2023-04-25T02:01:05;99886.16;;;7.91;82.33
64053;BME280;50299;49.524;8.536;2023-04-25T02:03:32;99889.56;;;7.70;85.95
64053;BME280;50299;49.524;8.536;2023-04-25T02:05:59;99884.88;;;7.62;88.19
64053;BME280;50299;49.524;8.536;2023-04-25T02:08:26;99889.75;;;7.74;93.23
64053;BME280;50299;49.524;8.536;2023-04-25T02:10:53;99890.72;;;7.78;90.66
64053;BME280;50299;49.524;8.536;2023-04-25T02:13:19;99884.22;;;7.65;89.42
64053;BME280;50299;49.524;8.536;2023-04-25T02:15:45;99892.97;;;7.76;89.05
64053;BME280;50299;49.524;8.536;2023-04-25T02:18:12;99886.97;;;7.65;88.27
64053;BME280;50299;49.524;8.536;2023-04-25T02:20:38;99887.16;;;7.86;92.42
64053;BME280;50299;49.524;8.536;2023-04-25T02:23:05;99881.28;;;8.05;93.57
64053;BME280;50299;49.524;8.536;2023-04-25T02:25:33;99881.78;;;8.07;94.50
64053;BME280;50299;49.524;8.536;2023-04-25T02:28:00;99881.13;;;8.19;94.95
64053;BME280;50299;49.524;8.536;2023-04-25T02:30:26;99878.81;;;8.29;90.74
64053;BME280;50299;49.524;8.536;2023-04-25T02:32:53;99883.81;;;8.45;93.46
64053;BME280;50299;49.524;8.536;2023-04-25T02:35:19;99883.94;;;8.57;91.13
64053;BME280;50299;49.524;8.536;2023-04-25T02:37:46;99877.75;;;8.60;90.85
64053;BME280;50299;49.524;8.536;2023-04-25T02:40:12;99881.03;;;8.45;82.03
64053;BME280;50299;49.524;8.536;2023-04-25T02:42:39;99877.16;;;8.46;89.64
64053;BME280;50299;49.524;8.536;2023-04-25T02:45:06;99880.78;;;8.20;75.31
64053;BME280;50299;49.524;8.536;2023-04-25T02:47:32;99871.91;;;7.71;80.92
64053;BME280;50299;49.524;8.536;2023-04-25T02:49:59;99870.28;;;7.87;88.14
64053;BME280;50299;49.524;8.536;2023-04-25T02:52:25;99873.19;;;8.00;86.59
64053;BME280;50299;49.524;8.536;2023-04-25T02:54:51;99873.31;;;8.21;90.30
64053;BME280;50299;49.524;8.536;2023-04-25T02:57:18;99869.78;;;8.11;80.81
64053;BME280;50299;49.524;8.536;2023-04-25T02:59:44;99870.94;;;8.02;87.52
64053;BME280;50299;49.524;8.536;2023-04-25T03:02:10;99874.50;;;8.11;88.07
64053;BME280;50299;49.524;8.536;2023-04-25T03:04:37;99871.59;;;7.99;87.06
64053;BME280;50299;49.524;8.536;2023-04-25T03:07:04;99872.25;;;7.70;81.37
64053;BME280;50299;49.524;8.536;2023-04-25T03:09:31;99867.22;;;7.80;90.15
64053;BME280;50299;49.524;8.536;2023-04-25T03:11:57;99864.00;;;7.87;89.28
64053;BME280;50299;49.524;8.536;2023-04-25T03:14:23;99851.22;;;7.74;87.91
64053;BME280;50299;49.524;8.536;2023-04-25T03:16:50;99853.16;;;7.82;88.25
64053;BME280;50299;49.524;8.536;2023-04-25T03:19:18;99854.25;;;7.81;86.86
64053;BME280;50299;49.524;8.536;2023-04-25T03:21:45;99857.03;;;7.98;90.10
64053;BME280;50299;49.524;8.536;2023-04-25T03:24:11;99852.19;;;7.86;81.72
64053;BME280;50299;49.524;8.536;2023-04-25T03:26:38;99860.88;;;7.97;87.09
64053;BME280;50299;49.524;8.536;2023-04-25T03:29:04;99857.31;;;8.05;88.04
64053;BME280;50299;49.524;8.536;2023-04-25T03:31:30;99860.22;;;8.18;89.70
64053;BME280;50299;49.524;8.536;2023-04-25T03:33:57;99866.06;;;8.16;87.92
64053;BME280;50299;49.524;8.536;2023-04-25T03:36:24;99858.25;;;8.18;89.35
64053;BME280;50299;49.524;8.536;2023-04-25T03:38:50;99867.63;;;8.26;88.71
64053;BME280;50299;49.524;8.536;2023-04-25T03:41:19;99864.56;;;8.36;89.38
64053;BME280;50299;49.524;8.536;2023-04-25T03:43:46;99863.25;;;8.33;84.42
64053;BME280;50299;49.524;8.536;2023-04-25T03:46:12;99864.41;;;8.32;87.63
64053;BME280;50299;49.524;8.536;2023-04-25T03:48:39;99859.34;;;8.34;87.35
64053;BME280;50299;49.524;8.536;2023-04-25T03:51:05;99865.69;;;8.35;87.47
64053;BME280;50299;49.524;8.536;2023-04-25T03:53:31;99869.06;;;8.41;87.77
64053;BME280;50299;49.524;8.536;2023-04-25T03:55:58;99868.59;;;8.30;84.25
64053;BME280;50299;49.524;8.536;2023-04-25T03:58:25;99866.06;;;8.16;86.69
64053;BME280;50299;49.524;8.536;2023-04-25T04:00:51;99868.78;;;8.25;87.52
64053;BME280;50299;49.524;8.536;2023-04-25T04:03:21;99874.78;;;8.27;86.84
64053;BME280;50299;49.524;8.536;2023-04-25T04:05:47;99871.53;;;8.25;86.65
64053;BME280;50299;49.524;8.536;2023-04-25T04:08:14;99876.41;;;8.19;86.71
64053;BME280;50299;49.524;8.536;2023-04-25T04:10:41;99878.69;;;8.17;87.15
64053;BME280;50299;49.524;8.536;2023-04-25T04:13:09;99874.16;;;8.12;84.65
64053;BME280;50299;49.524;8.536;2023-04-25T04:15:39;99875.94;;;8.00;82.80
64053;BME280;50299;49.524;8.536;2023-04-25T04:18:05;99872.22;;;7.52;81.68
64053;BME280;50299;49.524;8.536;2023-04-25T04:20:36;99873.88;;;7.62;87.14
64053;BME280;50299;49.524;8.536;2023-04-25T04:23:03;99875.31;;;7.68;84.24
64053;BME280;50299;49.524;8.536;2023-04-25T04:25:29;99877.84;;;7.47;80.45
64053;BME280;50299;49.524;8.536;2023-04-25T04:28:02;99884.94;;;7.31;82.26
64053;BME280;50299;49.524;8.536;2023-04-25T04:30:29;99874.75;;;7.23;86.50
64053;BME280;50299;49.524;8.536;2023-04-25T04:33:02;99876.69;;;7.31;81.66
64053;BME280;50299;49.524;8.536;2023-04-25T04:35:34;99881.78;;;7.55;89.72
64053;BME280;50299;49.524;8.536;2023-04-25T04:38:01;99880.97;;;7.72;90.44
64053;BME280;50299;49.524;8.536;2023-04-25T04:40:30;99885.66;;;7.80;87.82
64053;BME280;50299;49.524;8.536;2023-04-25T04:42:59;99893.44;;;7.86;87.80
64053;BME280;50299;49.524;8.536;2023-04-25T04:45:28;99892.13;;;7.93;86.34
64053;BME280;50299;49.524;8.536;2023-04-25T04:47:55;99893.91;;;7.97;82.86
64053;BME280;50299;49.524;8.536;2023-04-25T04:50:40;99895.56;;;7.98;88.36
64053;BME280;50299;49.524;8.536;2023-04-25T04:53:07;99891.66;;;8.08;88.11
64053;BME280;50299;49.524;8.536;2023-04-25T04:55:37;99897.63;;;8.19;87.86
64053;BME280;50299;49.524;8.536;2023-04-25T04:58:11;99906.69;;;8.28;87.49
64053;BME280;50299;49.524;8.536;2023-04-25T05:00:44;99915.09;;;8.31;86.65
64053;BME280;50299;49.524;8.536;2023-04-25T05:03:16;99911.84;;;8.29;87.04
64053;BME280;50299;49.524;8.536;2023-04-25T05:05:43;99915.75;;;8.28;86.68
64053;BME280;50299;49.524;8.536;2023-04-25T05:08:09;99913.63;;;8.34;88.35
64053;BME280;50299;49.524;8.536;2023-04-25T05:10:38;99916.53;;;8.37;86.10
64053;BME280;50299;49.524;8.536;2023-04-25T05:13:06;99916.38;;;8.34;85.40
64053;BME280;50299;49.524;8.536;2023-04-25T05:15:32;99916.72;;;8.32;85.43
64053;BME280;50299;49.524;8.536;2023-04-25T05:17:59;99922.38;;;8.36;85.85
64053;BME280;50299;49.524;8.536;2023-04-25T05:20:34;99925.31;;;8.39;85.14
64053;BME280;50299;49.524;8.536;2023-04-25T05:23:05;99922.72;;;8.26;84.88
64053;BME280;50299;49.524;8.536;2023-04-25T05:25:58;99918.50;;;8.28;85.75
64053;BME280;50299;49.524;8.536;2023-04-25T05:28:34;99920.75;;;8.26;85.71
64053;BME280;50299;49.524;8.536;2023-04-25T05:31:02;99922.72;;;8.26;83.69
64053;BME280;50299;49.524;8.536;2023-04-25T05:33:31;99925.47;;;8.17;79.66
64053;BME280;50299;49.524;8.536;2023-04-25T05:35:58;99930.19;;;7.99;79.33
64053;BME280;50299;49.524;8.536;2023-04-25T05:38:24;99927.28;;;7.96;83.31
64053;BME280;50299;49.524;8.536;2023-04-25T05:40:51;99933.41;;;7.93;82.39
64053;BME280;50299;49.524;8.536;2023-04-25T05:43:22;99924.53;;;7.96;86.01
64053;BME280;50299;49.524;8.536;2023-04-25T05:45:51;99934.91;;;7.99;83.37
64053;BME280;50299;49.524;8.536;2023-04-25T05:48:25;99926.94;;;7.97;84.21
64053;BME280;50299;49.524;8.536;2023-04-25T05:50:58;99929.84;;;8.27;89.10
64053;BME280;50299;49.524;8.536;2023-04-25T05:53:25;99939.69;;;8.54;86.03
64053;BME280;50299;49.524;8.536;2023-04-25T05:55:51;99945.19;;;8.54;83.35
64053;BME280;50299;49.524;8.536;2023-04-25T05:58:20;99943.25;;;8.46;79.52
64053;BME280;50299;49.524;8.536;2023-04-25T06:00:47;99942.59;;;8.49;83.90
64053;BME280;50299;49.524;8.536;2023-04-25T06:03:13;99939.53;;;8.42;84.61
64053;BME280;50299;49.524;8.536;2023-04-25T06:05:46;99941.47;;;8.41;80.25
64053;BME280;50299;49.524;8.536;2023-04-25T06:08:15;99952.84;;;8.31;81.47
64053;BME280;50299;49.524;8.536;2023-04-25T06:10:42;99948.47;;;8.30;86.20
64053;BME280;50299;49.524;8.536;2023-04-25T06:13:10;99946.78;;;8.55;83.01
64053;BME280;50299;49.524;8.536;2023-04-25T06:15:42;99947.78;;;8.68;88.14
64053;BME280;50299;49.524;8.536;2023-04-25T06:18:14;99955.56;;;8.48;72.42
64053;BME280;50299;49.524;8.536;2023-04-25T06:20:43;99958.97;;;7.58;71.67
64053;BME280;50299;49.524;8.536;2023-04-25T06:23:15;99951.84;;;7.49;80.38
64053;BME280;50299;49.524;8.536;2023-04-25T06:25:42;99945.34;;;6.65;73.35
64053;BME280;50299;49.524;8.536;2023-04-25T06:28:11;99955.97;;;6.13;83.94
64053;BME280;50299;49.524;8.536;2023-04-25T06:30:52;99960.44;;;5.73;76.73
64053;BME280;50299;49.524;8.536;2023-04-25T06:33:19;99961.88;;;5.70;81.62
64053;BME280;50299;49.524;8.536;2023-04-25T06:35:47;99963.16;;;5.86;83.04
64053;BME280;50299;49.524;8.536;2023-04-25T06:38:15;99961.38;;;6.04;77.54
64053;BME280;50299;49.524;8.536;2023-04-25T06:40:44;99963.94;;;6.01;77.48
64053;BME280;50299;49.524;8.536;2023-04-25T06:43:14;99968.91;;;6.35;82.42
64053;BME280;50299;49.524;8.536;2023-04-25T06:45:42;99971.75;;;6.52;82.96
64053;BME280;50299;49.524;8.536;2023-04-25T06:48:13;99970.47;;;6.50;78.53
64053;BME280;50299;49.524;8.536;2023-04-25T06:50:44;99977.38;;;6.25;76.70
64053;BME280;50299;49.524;8.536;2023-04-25T06:53:11;99970.16;;;5.93;78.95
64053;BME280;50299;49.524;8.536;2023-04-25T06:55:43;99981.59;;;5.58;77.62
64053;BME280;50299;49.524;8.536;2023-04-25T06:58:18;99971.38;;;5.86;81.76
64053;BME280;50299;49.524;8.536;2023-04-25T07:00:47;99987.38;;;5.57;74.11
64053;BME280;50299;49.524;8.536;2023-04-25T07:03:14;99983.22;;;5.46;81.42
64053;BME280;50299;49.524;8.536;2023-04-25T07:05:45;99980.66;;;5.63;80.48
64053;BME280;50299;49.524;8.536;2023-04-25T07:08:14;99997.97;;;5.22;74.19
64053;BME280;50299;49.524;8.536;2023-04-25T07:10:47;99996.63;;;5.33;77.46
64053;BME280;50299;49.524;8.536;2023-04-25T07:13:15;99989.81;;;5.58;81.99
64053;BME280;50299;49.524;8.536;2023-04-25T07:15:48;99993.09;;;5.97;83.70
64053;BME280;50299;49.524;8.536;2023-04-25T07:18:15;100000.22;;;6.20;74.70
64053;BME280;50299;49.524;8.536;2023-04-25T07:20:42;99999.56;;;6.14;75.20
64053;BME280;50299;49.524;8.536;2023-04-25T07:23:12;99987.78;;;6.36;82.42
64053;BME280;50299;49.524;8.536;2023-04-25T07:25:40;99995.41;;;6.39;76.71
64053;BME280;50299;49.524;8.536;2023-04-25T07:28:15;99996.41;;;6.44;78.29
64053;BME280;50299;49.524;8.536;2023-04-25T07:30:47;100011.75;;;6.45;73.25
64053;BME280;50299;49.524;8.536;2023-04-25T07:33:15;100004.19;;;6.28;76.97
64053;BME280;50299;49.524;8.536;2023-04-25T07:35:45;100011.53;;;6.19;74.79
64053;BME280;50299;49.524;8.536;2023-04-25T07:38:14;100011.16;;;6.25;80.42
64053;BME280;50299;49.524;8.536;2023-04-25T07:40:46;100017.81;;;6.33;77.65
64053;BME280;50299;49.524;8.536;2023-04-25T07:43:13;100016.69;;;6.34;72.01
64053;BME280;50299;49.524;8.536;2023-04-25T07:45:50;100020.00;;;6.45;74.21
64053;BME280;50299;49.524;8.536;2023-04-25T07:48:17;100013.09;;;6.78;77.54
64053;BME280;50299;49.524;8.536;2023-04-25T07:50:51;100019.53;;;6.74;71.96
64053;BME280;50299;49.524;8.536;2023-04-25T07:53:18;100024.56;;;6.13;71.10
64053;BME280;50299;49.524;8.536;2023-04-25T07:55:46;100027.81;;;6.15;77.63
64053;BME280;50299;49.524;8.536;2023-04-25T07:58:25;100031.78;;;6.23;75.12
64053;BME280;50299;49.524;8.536;2023-04-25T08:00:57;100037.94;;;5.78;69.77
64053;BME280;50299;49.524;8.536;2023-04-25T08:03:48;100037.00;;;5.83;75.90
64053;BME280;50299;49.524;8.536;2023-04-25T08:06:14;100042.81;;;5.12;73.14
64053;BME280;50299;49.524;8.536;2023-04-25T08:08:43;100055.28;;;5.05;70.43
64053;BME280;50299;49.524;8.536;2023-04-25T08:11:10;100053.31;;;5.52;71.40
64053;BME280;50299;49.524;8.536;2023-04-25T08:13:41;100055.53;;;5.77;80.38
64053;BME280;50299;49.524;8.536;2023-04-25T08:16:16;100067.09;;;5.33;65.42
64053;BME280;50299;49.524;8.536;2023-04-25T08:18:48;100060.00;;;5.18;76.67
64053;BME280;50299;49.524;8.536;2023-04-25T08:21:16;100069.97;;;5.55;75.14
64053;BME280;50299;49.524;8.536;2023-04-25T08:24:09;100058.75;;;6.43;78.59
64053;BME280;50299;49.524;8.536;2023-04-25T08:26:36;100079.03;;;6.78;65.29
64053;BME280;50299;49.524;8.536;2023-04-25T08:29:03;100083.31;;;6.84;63.46
64053;BME280;50299;49.524;8.536;2023-04-25T08:31:37;100092.69;;;5.83;62.31
64053;BME280;50299;49.524;8.536;2023-04-25T08:34:03;100088.69;;;6.31;68.88
64053;BME280;50299;49.524;8.536;2023-04-25T08:36:32;100087.81;;;6.58;71.84
64053;BME280;50299;49.524;8.536;2023-04-25T08:39:05;100095.41;;;6.83;64.63
64053;BME280;50299;49.524;8.536;2023-04-25T08:41:36;100099.34;;;6.91;65.33
64053;BME280;50299;49.524;8.536;2023-04-25T08:44:08;100096.78;;;6.72;69.62
64053;BME280;50299;49.524;8.536;2023-04-25T08:46:39;100097.53;;;6.86;65.04
64053;BME280;50299;49.524;8.536;2023-04-25T08:49:25;100097.97;;;6.80;65.26
64053;BME280;50299;49.524;8.536;2023-04-25T08:52:02;100102.13;;;7.22;72.07
64053;BME280;50299;49.524;8.536;2023-04-25T08:54:34;100101.19;;;7.58;69.78
64053;BME280;50299;49.524;8.536;2023-04-25T08:57:05;100113.56;;;7.47;62.49
64053;BME280;50299;49.524;8.536;2023-04-25T08:59:34;100110.88;;;7.24;62.50
64053;BME280;50299;49.524;8.536;2023-04-25T09:02:04;100115.56;;;7.24;61.50
64053;BME280;50299;49.524;8.536;2023-04-25T09:04:35;100123.06;;;7.63;63.95
64053;BME280;50299;49.524;8.536;2023-04-25T09:07:05;100116.34;;;7.15;63.04
64053;BME280;50299;49.524;8.536;2023-04-25T09:12:13;100122.78;;;6.66;59.36
64053;BME280;50299;49.524;8.536;2023-04-25T09:15:06;100126.53;;;6.70;62.33
64053;BME280;50299;49.524;8.536;2023-04-25T09:17:36;100135.56;;;7.15;65.19
64053;BME280;50299;49.524;8.536;2023-04-25T09:20:15;100137.84;;;7.76;63.09
64053;BME280;50299;49.524;8.536;2023-04-25T09:22:48;100142.94;;;8.00;57.13
64053;BME280;50299;49.524;8.536;2023-04-25T09:25:21;100141.72;;;8.14;57.50
64053;BME280;50299;49.524;8.536;2023-04-25T09:27:52;100140.16;;;8.48;66.26
64053;BME280;50299;49.524;8.536;2023-04-25T09:30:29;100146.13;;;8.59;53.37
64053;BME280;50299;49.524;8.536;2023-04-25T09:33:11;100141.00;;;8.00;57.23
64053;BME280;50299;49.524;8.536;2023-04-25T09:35:44;100147.44;;;8.44;65.37
64053;BME280;50299;49.524;8.536;2023-04-25T09:38:15;100152.19;;;8.04;64.71
64053;BME280;50299;49.524;8.536;2023-04-25T09:40:46;100156.97;;;8.38;57.62
64053;BME280;50299;49.524;8.536;2023-04-25T09:43:20;100161.56;;;7.63;52.46
64053;BME280;50299;49.524;8.536;2023-04-25T09:45:48;100164.53;;;7.22;64.29
64053;BME280;50299;49.524;8.536;2023-04-25T09:48:19;100173.94;;;7.74;69.54
64053;BME280;50299;49.524;8.536;2023-04-25T09:51:09;100169.06;;;8.11;56.94
64053;BME280;50299;49.524;8.536;2023-04-25T09:53:40;100170.59;;;8.43;65.21
64053;BME280;50299;49.524;8.536;2023-04-25T09:56:09;100182.03;;;8.85;63.23
64053;BME280;50299;49.524;8.536;2023-04-25T09:58:40;100179.91;;;8.65;56.56
64053;BME280;50299;49.524;8.536;2023-04-25T10:01:08;100187.00;;;8.57;50.01
64053;BME280;50299;49.524;8.536;2023-04-25T10:03:39;100181.78;;;8.47;55.97
64053;BME280;50299;49.524;8.536;2023-04-25T10:06:19;100182.91;;;8.54;54.55
64053;BME280;50299;49.524;8.536;2023-04-25T10:08:49;100180.31;;;8.49;55.00
64053;BME280;50299;49.524;8.536;2023-04-25T10:11:18;100181.53;;;9.09;64.24
64053;BME280;50299;49.524;8.536;2023-04-25T10:13:50;100180.88;;;9.12;57.52
64053;BME280;50299;49.524;8.536;2023-04-25T10:16:17;100187.28;;;9.59;62.26
64053;BME280;50299;49.524;8.536;2023-04-25T10:18:47;100187.03;;;9.91;63.29
64053;BME280;50299;49.524;8.536;2023-04-25T10:21:17;100180.91;;;10.15;58.13
64053;BME280;50299;49.524;8.536;2023-04-25T10:23:45;100181.97;;;10.31;62.68
64053;BME280;50299;49.524;8.536;2023-04-25T10:26:17;100186.13;;;10.46;51.45
64053;BME280;50299;49.524;8.536;2023-04-25T10:29:01;100189.53;;;9.66;55.38
64053;BME280;50299;49.524;8.536;2023-04-25T10:31:30;100193.81;;;9.37;53.45
64053;BME280;50299;49.524;8.536;2023-04-25T10:34:02;100193.81;;;9.46;60.30
64053;BME280;50299;49.524;8.536;2023-04-25T10:36:33;100190.94;;;9.25;48.71
64053;BME280;50299;49.524;8.536;2023-04-25T10:39:04;100191.56;;;8.13;51.74
64053;BME280;50299;49.524;8.536;2023-04-25T10:41:52;100191.81;;;8.43;54.27
64053;BME280;50299;49.524;8.536;2023-04-25T10:44:29;100195.47;;;8.86;60.49
64053;BME280;50299;49.524;8.536;2023-04-25T10:46:59;100194.63;;;9.21;53.48
64053;BME280;50299;49.524;8.536;2023-04-25T10:49:34;100196.03;;;9.61;61.02
64053;BME280;50299;49.524;8.536;2023-04-25T10:54:41;100193.81;;;9.29;59.00
64053;BME280;50299;49.524;8.536;2023-04-25T10:57:26;100201.31;;;8.85;51.55
64053;BME280;50299;49.524;8.536;2023-04-25T10:59:53;100193.59;;;7.90;51.28
64053;BME280;50299;49.524;8.536;2023-04-25T11:02:28;100204.94;;;7.97;61.20
64053;BME280;50299;49.524;8.536;2023-04-25T11:04:55;100206.97;;;7.74;52.99
64053;BME280;50299;49.524;8.536;2023-04-25T11:10:34;100219.09;;;8.61;53.52
64053;BME280;50299;49.524;8.536;2023-04-25T11:13:11;100212.47;;;8.80;53.72
64053;BME280;50299;49.524;8.536;2023-04-25T11:15:37;100215.13;;;8.36;51.36
64053;BME280;50299;49.524;8.536;2023-04-25T11:18:04;100211.41;;;8.41;55.63
64053;BME280;50299;49.524;8.536;2023-04-25T11:20:30;100218.75;;;8.63;49.69
64053;BME280;50299;49.524;8.536;2023-04-25T11:22:58;100219.59;;;8.15;49.70
64053;BME280;50299;49.524;8.536;2023-04-25T11:25:30;100217.78;;;8.02;54.45
64053;BME280;50299;49.524;8.536;2023-04-25T11:28:26;100226.31;;;8.31;50.43
64053;BME280;50299;49.524;8.536;2023-04-25T11:31:04;100219.84;;;8.36;52.61
64053;BME280;50299;49.524;8.536;2023-04-25T11:33:32;100225.16;;;8.32;49.37
64053;BME280;50299;49.524;8.536;2023-04-25T11:36:05;100217.88;;;8.28;52.25
64053;BME280;50299;49.524;8.536;2023-04-25T11:38:32;100223.66;;;8.66;51.26
64053;BME280;50299;49.524;8.536;2023-04-25T11:40:59;100219.31;;;8.25;47.77
64053;BME280;50299;49.524;8.536;2023-04-25T11:43:48;100224.59;;;8.13;50.87
64053;BME280;50299;49.524;8.536;2023-04-25T11:46:27;100225.31;;;8.84;55.25
64053;BME280;50299;49.524;8.536;2023-04-25T11:48:59;100230.00;;;9.36;54.74
64053;BME280;50299;49.524;8.536;2023-04-25T11:51:28;100234.13;;;9.94;54.74
64053;BME280;50299;49.524;8.536;2023-04-25T11:53:57;100235.63;;;9.74;52.75
64053;BME280;50299;49.524;8.536;2023-04-25T11:56:26;100233.41;;;9.24;47.93
64053;BME280;50299;49.524;8.536;2023-04-25T11:59:00;100242.31;;;9.73;51.51
64053;BME280;50299;49.524;8.536;2023-04-25T12:01:33;100242.19;;;10.17;52.96
64053;BME280;50299;49.524;8.536;2023-04-25T12:04:21;100237.59;;;9.56;51.76
64053;BME280;50299;49.524;8.536;2023-04-25T12:06:49;100244.56;;;8.67;48.84
64053;BME280;50299;49.524;8.536;2023-04-25T12:09:21;100250.69;;;8.55;52.65
64053;BME280;50299;49.524;8.536;2023-04-25T12:11:54;100242.66;;;9.02;48.46
64053;BME280;50299;49.524;8.536;2023-04-25T12:14:26;100247.69;;;9.00;47.39
64053;BME280;50299;49.524;8.536;2023-04-25T12:16:59;100243.31;;;9.51;50.51
64053;BME280;50299;49.524;8.536;2023-04-25T12:19:32;100257.03;;;9.95;53.85
64053;BME280;50299;49.524;8.536;2023-04-25T12:22:02;100253.00;;;9.83;48.19
64053;BME280;50299;49.524;8.536;2023-04-25T12:24:33;100258.75;;;10.17;54.85
64053;BME280;50299;49.524;8.536;2023-04-25T12:27:05;100257.31;;;10.40;45.00
64053;BME280;50299;49.524;8.536;2023-04-25T12:29:35;100257.81;;;10.42;54.44
64053;BME280;50299;49.524;8.536;2023-04-25T12:32:15;100249.28;;;10.26;45.59
64053;BME280;50299;49.524;8.536;2023-04-25T12:34:43;100256.34;;;10.06;54.77
64053;BME280;50299;49.524;8.536;2023-04-25T12:37:12;100252.56;;;9.47;47.47
64053;BME280;50299;49.524;8.536;2023-04-25T12:39:39;100255.09;;;8.65;51.47
64053;BME280;50299;49.524;8.536;2023-04-25T12:42:08;100265.06;;;9.35;51.64
64053;BME280;50299;49.524;8.536;2023-04-25T12:44:38;100262.13;;;9.41;49.44
64053;BME280;50299;49.524;8.536;2023-04-25T12:47:04;100257.75;;;9.31;53.10
64053;BME280;50299;49.524;8.536;2023-04-25T12:49:33;100268.16;;;9.34;47.89
64053;BME280;50299;49.524;8.536;2023-04-25T12:51:59;100264.25;;;9.26;52.45
64053;BME280;50299;49.524;8.536;2023-04-25T12:54:28;100271.53;;;9.40;46.76
64053;BME280;50299;49.524;8.536;2023-04-25T12:57:10;100269.56;;;9.66;44.70
64053;BME280;50299;49.524;8.536;2023-04-25T12:59:37;100274.94;;;9.36;50.51
64053;BME280;50299;49.524;8.536;2023-04-25T13:02:04;100274.28;;;9.57;57.84
64053;BME280;50299;49.524;8.536;2023-04-25T13:04:31;100270.50;;;9.96;55.00
64053;BME280;50299;49.524;8.536;2023-04-25T13:07:03;100266.41;;;10.49;64.33
64053;BME280;50299;49.524;8.536;2023-04-25T13:09:36;100270.66;;;10.76;55.05
64053;BME280;50299;49.524;8.536;2023-04-25T13:12:08;100280.63;;;10.30;44.46
64053;BME280;50299;49.524;8.536;2023-04-25T13:14:35;100269.41;;;10.27;52.43
64053;BME280;50299;49.524;8.536;2023-04-25T13:17:04;100279.31;;;9.81;52.28
64053;BME280;50299;49.524;8.536;2023-04-25T13:19:31;100258.53;;;9.57;46.43
64053;BME280;50299;49.524;8.536;2023-04-25T13:22:02;100270.28;;;10.10;58.35
64053;BME280;50299;49.524;8.536;2023-04-25T13:24:30;100265.06;;;10.55;52.31
64053;BME280;50299;49.524;8.536;2023-04-25T13:26:57;100266.66;;;10.27;54.19